Norse Mersey — IBEN — position and weather

sailwx.info

Track history (hours):
 
Tides and Currents Weather Stations Pressure Air Temp Water Temp Dewpoint Dewpoint Depression Visibility Wind Speed Wind Dir Waves Ship Positions

Norse Mersey

Operator: Norse Merchant Ferries

Last reported at 2019-Jul-16 22:30 UTC. Time now 2019-Jul-16 22:35 UTC.
Position N 42°44' E 009°57'.

Length 175 m; draft 5.3 m.

Type: Passenger vessel. MMSI: 247026000.

Date/timePositionNaut miles runAvg speedWind from/ knotsBaromVisibWave heightAir tempDewpointWater temp
2019-Jul-16 22:30N 42°44' E 009°57'816.2
2019-Jul-16 22:00N 42°52' E 009°59'816.2
2019-Jul-16 21:30N 42°60' E 010°01'816.1
2019-Jul-16 21:00N 43°08' E 010°03'816.2
2019-Jul-16 20:30N 43°15' E 010°06'816.3
2019-Jul-16 20:00N 43°23' E 010°09'815.0
2019-Jul-16 19:30N 43°31' E 010°12'4 8.8
2019-Jul-16 19:00N 43°33' E 010°17'2 4.5
2019-Jul-16 18:28N 43°35' E 010°19'0 0.0
2019-Jul-16 17:58N 43°35' E 010°19'0 0.0
2019-Jul-16 17:28N 43°35' E 010°19'0 0.0
2019-Jul-16 16:58N 43°35' E 010°19'0 0.0
2019-Jul-16 16:28N 43°35' E 010°19'0 0.0
2019-Jul-16 15:58N 43°35' E 010°19'0 0.0
2019-Jul-16 15:28N 43°35' E 010°19'0 0.0
2019-Jul-16 14:58N 43°35' E 010°19'0 0.0
2019-Jul-16 14:28N 43°35' E 010°19'0 0.0
2019-Jul-16 13:58N 43°35' E 010°19'0 0.0
2019-Jul-16 13:28N 43°35' E 010°19'0 0.0
2019-Jul-16 12:58N 43°35' E 010°19'0 0.0
2019-Jul-16 12:25N 43°35' E 010°19'0 0.0
2019-Jul-16 11:58N 43°35' E 010°19'0 0.0
2019-Jul-16 11:28N 43°35' E 010°19'0 0.0
2019-Jul-16 10:58N 43°35' E 010°19'0 0.0
2019-Jul-16 10:28N 43°35' E 010°19'0 0.0
2019-Jul-16 09:58N 43°35' E 010°19'0 0.0
2019-Jul-16 09:28N 43°35' E 010°19'0 0.0
2019-Jul-16 08:58N 43°35' E 010°19'0 0.0
2019-Jul-16 08:25N 43°35' E 010°19'0 0.0
2019-Jul-16 07:58N 43°35' E 010°19'0 0.0
2019-Jul-16 07:28N 43°35' E 010°19'0 0.0
2019-Jul-16 06:55N 43°35' E 010°19'0 0.0
2019-Jul-16 06:28N 43°35' E 010°19'0 0.0
2019-Jul-16 05:55N 43°35' E 010°19'1 1.4
2019-Jul-16 05:31N 43°34' E 010°18'3 5.7
2019-Jul-16 05:00N 43°32' E 010°16'4 9.0
2019-Jul-16 04:30N 43°28' E 010°13'816.0
2019-Jul-16 04:00N 43°20' E 010°10'816.0
2019-Jul-16 03:30N 43°12' E 010°08'815.6
2019-Jul-16 03:00N 43°05' E 010°06'815.6
2019-Jul-16 02:29N 42°57' E 010°04'6515.3
2019-Jul-15 22:12N 41°53' E 009°46'56 2.0
2019-Jul-14 17:48N 40°58' E 009°36'  
2019-Jul-12 01:17N 41°48' E 009°48'716.6
2019-Jul-12 00:51N 41°55' E 009°49'3116.1
2019-Jul-11 22:57N 42°26' E 009°54'1316.0
2019-Jul-11 22:09N 42°38' E 009°55'616.1
2019-Jul-11 21:46N 42°44' E 009°57'616.1
2019-Jul-11 21:22N 42°51' E 009°59'815.8
2019-Jul-11 20:53N 42°58' E 010°01'615.8
2019-Jul-11 20:30N 43°04' E 010°03'815.7
2019-Jul-11 20:00N 43°12' E 010°05'815.8
2019-Jul-11 19:30N 43°19' E 010°08'815.9
2019-Jul-11 19:00N 43°27' E 010°11'612.8
2019-Jul-11 18:30N 43°32' E 010°16'3 5.3
2019-Jul-11 18:00N 43°34' E 010°18'1 1.3
2019-Jul-11 17:29N 43°35' E 010°19'0 0.0
2019-Jul-11 16:59N 43°35' E 010°19'0 0.0
2019-Jul-11 16:29N 43°35' E 010°19'0 0.0
2019-Jul-11 15:59N 43°35' E 010°19'0 0.0
2019-Jul-11 15:29N 43°35' E 010°19'0 0.0
2019-Jul-11 14:59N 43°35' E 010°19'0 0.0
2019-Jul-11 14:29N 43°35' E 010°19'0 0.0
2019-Jul-11 13:59N 43°35' E 010°19'0 0.0
2019-Jul-11 13:29N 43°35' E 010°19'0 0.0
2019-Jul-11 12:56N 43°35' E 010°19'0 0.0
2019-Jul-11 12:29N 43°35' E 010°19'0 0.0
2019-Jul-11 11:59N 43°35' E 010°19'0 0.0
2019-Jul-11 11:23N 43°35' E 010°19'0 0.0
2019-Jul-11 10:59N 43°35' E 010°19'0 0.0
2019-Jul-11 10:29N 43°35' E 010°19'0 0.0
2019-Jul-11 09:59N 43°35' E 010°19'0 0.0
2019-Jul-11 09:29N 43°35' E 010°19'0 0.0
2019-Jul-11 08:59N 43°35' E 010°19'0 0.0
2019-Jul-11 08:29N 43°35' E 010°19'0 0.0
2019-Jul-11 07:59N 43°35' E 010°19'0 0.0
2019-Jul-11 07:23N 43°35' E 010°19'0 0.0
2019-Jul-11 06:53N 43°35' E 010°19'0 0.0
2019-Jul-11 06:29N 43°35' E 010°19'0 0.0
2019-Jul-11 05:59N 43°35' E 010°19'1 1.1
2019-Jul-11 05:30N 43°34' E 010°19'3 6.7
2019-Jul-11 05:01N 43°32' E 010°16'2 3.8
2019-Jul-11 04:31N 43°30' E 010°15'3 5.3
2019-Jul-11 04:00N 43°28' E 010°13'815.9
2019-Jul-11 03:30N 43°20' E 010°10'815.8
2019-Jul-11 03:00N 43°12' E 010°07'815.8
2019-Jul-11 02:31N 43°05' E 010°05'815.9
2019-Jul-11 02:00N 42°57' E 010°03'1315.7
2019-Jul-11 01:10N 42°44' E 009°59'515.7
2019-Jul-11 00:52N 42°40' E 009°57'615.7
2019-Jul-11 00:29N 42°34' E 009°56'815.9
2019-Jul-10 23:58N 42°25' E 009°54'815.9
2019-Jul-10 23:27N 42°17' E 009°53'1115.7
2019-Jul-10 22:44N 42°06' E 009°52'515.5
2019-Jul-10 22:25N 42°01' E 009°52'15 0.7
2019-Jul-10 01:43N 41°47' E 009°48'315.5
2019-Jul-10 01:30N 41°50' E 009°48'6815.8
2019-Jul-09 21:13N 42°57' E 009°58'314.9
2019-Jul-09 21:00N 43°00' E 009°60'714.3
2019-Jul-09 20:30N 43°07' E 010°04'815.8
2019-Jul-09 20:00N 43°14' E 010°06'815.6
2019-Jul-09 19:30N 43°22' E 010°09'815.6
2019-Jul-09 19:00N 43°29' E 010°12'510.4
2019-Jul-09 18:31N 43°33' E 010°17'2 4.0
2019-Jul-09 18:00N 43°35' E 010°19'0 0.0
2019-Jul-09 17:30N 43°35' E 010°19'0 0.0
2019-Jul-09 17:00N 43°35' E 010°19'0 0.0
2019-Jul-09 16:21N 43°35' E 010°19'0 0.0
2019-Jul-09 15:54N 43°35' E 010°19'0 0.0
2019-Jul-09 15:30N 43°35' E 010°19'0 0.0
2019-Jul-09 15:00N 43°35' E 010°19'0 0.0
2019-Jul-09 14:30N 43°35' E 010°19'0 0.0
2019-Jul-09 14:00N 43°35' E 010°19'0 0.0
2019-Jul-09 13:30N 43°35' E 010°19'0 0.0
2019-Jul-09 13:00N 43°35' E 010°19'1 1.9
2019-Jul-09 12:30N 43°34' E 010°18'1 2.0
2019-Jul-09 11:57N 43°33' E 010°18'0 0.0
2019-Jul-09 11:30N 43°33' E 010°18'0 0.0
2019-Jul-09 11:00N 43°33' E 010°18'0 0.0
2019-Jul-09 10:30N 43°33' E 010°18'0 0.0
2019-Jul-09 10:00N 43°33' E 010°18'0 0.0
2019-Jul-09 09:30N 43°33' E 010°18'0 0.0
2019-Jul-09 09:00N 43°33' E 010°18'0 0.0
2019-Jul-09 08:30N 43°33' E 010°18'0 0.0
2019-Jul-09 07:57N 43°33' E 010°18'0 0.0
2019-Jul-09 07:30N 43°33' E 010°18'0 0.0
2019-Jul-09 07:00N 43°33' E 010°18'0 0.0
2019-Jul-09 06:27N 43°33' E 010°18'0 0.0
2019-Jul-09 06:00N 43°33' E 010°18'0 0.0
2019-Jul-09 05:30N 43°33' E 010°18'0 0.0
2019-Jul-09 05:00N 43°33' E 010°18'0 0.0
2019-Jul-09 04:30N 43°33' E 010°18'0 0.0
2019-Jul-09 03:57N 43°33' E 010°18'0 0.0
2019-Jul-09 03:27N 43°33' E 010°18'0 0.0
2019-Jul-09 03:00N 43°33' E 010°18'0 0.0
2019-Jul-09 02:30N 43°33' E 010°18'0 0.0
2019-Jul-09 02:00N 43°33' E 010°18'0 0.0
2019-Jul-09 01:30N 43°33' E 010°18'0 0.0
2019-Jul-09 01:00N 43°33' E 010°18'0 0.0
2019-Jul-09 00:30N 43°33' E 010°18'0 0.0
2019-Jul-08 23:57N 43°33' E 010°18'0 0.0
2019-Jul-08 23:30N 43°33' E 010°18'0 0.0
2019-Jul-08 23:00N 43°33' E 010°18'0 0.0
2019-Jul-08 22:30N 43°33' E 010°18'0 0.0
2019-Jul-08 22:00N 43°33' E 010°18'0 0.0
2019-Jul-08 21:30N 43°33' E 010°18'0 0.0
2019-Jul-08 20:57N 43°33' E 010°18'0 0.0
2019-Jul-08 20:30N 43°33' E 010°18'0 0.0
2019-Jul-08 19:57N 43°33' E 010°18'0 0.0
2019-Jul-08 19:30N 43°33' E 010°18'0 0.0
2019-Jul-08 19:00N 43°33' E 010°18'0 0.0
2019-Jul-08 18:30N 43°33' E 010°18'0 0.0
2019-Jul-08 18:00N 43°33' E 010°18'0 0.0
2019-Jul-08 17:30N 43°33' E 010°18'0 0.0
2019-Jul-08 17:00N 43°33' E 010°18'0 0.0
2019-Jul-08 16:30N 43°33' E 010°18'0 0.0
2019-Jul-08 16:00N 43°33' E 010°18'0 0.0
2019-Jul-08 15:27N 43°33' E 010°18'0 0.0
2019-Jul-08 15:00N 43°33' E 010°18'0 0.0
2019-Jul-08 14:30N 43°33' E 010°18'0 0.0
2019-Jul-08 14:00N 43°33' E 010°18'0 0.0
2019-Jul-08 13:30N 43°33' E 010°18'0 0.0
2019-Jul-08 13:00N 43°33' E 010°18'0 0.0
2019-Jul-08 12:27N 43°33' E 010°18'0 0.0
2019-Jul-08 12:00N 43°33' E 010°18'0 0.0
2019-Jul-08 11:27N 43°33' E 010°18'0 0.0
2019-Jul-08 11:00N 43°33' E 010°18'0 0.0
2019-Jul-08 10:30N 43°33' E 010°18'0 0.0
2019-Jul-08 10:00N 43°33' E 010°18'0 0.0
2019-Jul-08 09:30N 43°33' E 010°18'0 0.0
2019-Jul-08 09:00N 43°33' E 010°18'0 0.0
2019-Jul-08 08:30N 43°33' E 010°18'0 0.0
2019-Jul-08 08:00N 43°33' E 010°18'0 0.0
2019-Jul-08 07:30N 43°33' E 010°18'0 0.0
2019-Jul-08 07:00N 43°33' E 010°18'0 0.0
2019-Jul-08 06:30N 43°33' E 010°18'0 0.0
2019-Jul-08 06:00N 43°33' E 010°18'0 0.0
2019-Jul-08 05:27N 43°33' E 010°18'0 0.0
2019-Jul-08 05:00N 43°33' E 010°18'0 0.0
2019-Jul-08 04:27N 43°33' E 010°18'0 0.0
2019-Jul-08 03:57N 43°33' E 010°18'0 0.0
2019-Jul-08 03:30N 43°33' E 010°18'0 0.0
2019-Jul-08 03:00N 43°33' E 010°18'0 0.0
2019-Jul-08 02:24N 43°33' E 010°18'0 0.0
2019-Jul-08 02:00N 43°33' E 010°18'0 0.0
2019-Jul-08 01:30N 43°33' E 010°18'0 0.0
2019-Jul-08 01:00N 43°33' E 010°18'0 0.0
2019-Jul-08 00:30N 43°33' E 010°18'0 0.0
2019-Jul-08 00:00N 43°33' E 010°18'0 0.0
2019-Jul-07 23:27N 43°33' E 010°18'0 0.0
2019-Jul-07 23:00N 43°33' E 010°18'0 0.0
2019-Jul-07 22:30N 43°33' E 010°18'0 0.0
2019-Jul-07 21:57N 43°33' E 010°18'0 0.0
2019-Jul-07 21:30N 43°33' E 010°18'0 0.0
2019-Jul-07 21:00N 43°33' E 010°18'0 0.0
2019-Jul-07 20:27N 43°33' E 010°18'0 0.0
2019-Jul-07 20:00N 43°33' E 010°18'0 0.0
2019-Jul-07 19:30N 43°33' E 010°18'0 0.0
2019-Jul-07 19:00N 43°33' E 010°18'0 0.0
2019-Jul-07 18:30N 43°33' E 010°18'0 0.0
2019-Jul-07 18:00N 43°33' E 010°18'0 0.0
2019-Jul-07 17:27N 43°33' E 010°18'0 0.0
2019-Jul-07 16:57N 43°33' E 010°18'0 0.0
2019-Jul-07 16:30N 43°33' E 010°18'0 0.0
2019-Jul-07 16:00N 43°33' E 010°18'0 0.0
2019-Jul-07 15:30N 43°33' E 010°18'0 0.0
2019-Jul-07 15:00N 43°33' E 010°18'0 0.0
2019-Jul-07 14:30N 43°33' E 010°18'0 0.0
2019-Jul-07 14:00N 43°33' E 010°18'0 0.0
2019-Jul-07 13:30N 43°33' E 010°18'0 0.0
2019-Jul-07 13:00N 43°33' E 010°18'0 0.0
2019-Jul-07 12:30N 43°33' E 010°18'0 0.0
2019-Jul-07 12:00N 43°33' E 010°18'0 0.0
2019-Jul-07 11:30N 43°33' E 010°18'0 0.0
2019-Jul-07 10:54N 43°33' E 010°18'0 0.0
2019-Jul-07 10:30N 43°33' E 010°18'0 0.0
2019-Jul-07 10:00N 43°33' E 010°18'0 0.0
2019-Jul-07 09:27N 43°33' E 010°18'0 0.0
2019-Jul-07 09:00N 43°33' E 010°18'0 0.0
2019-Jul-07 08:30N 43°33' E 010°18'0 0.0
2019-Jul-07 08:00N 43°33' E 010°18'0 0.0
2019-Jul-07 07:27N 43°33' E 010°18'0 0.0
2019-Jul-07 07:00N 43°33' E 010°18'0 0.0
2019-Jul-07 06:30N 43°33' E 010°18'0 0.0
2019-Jul-07 06:00N 43°33' E 010°18'0 0.0
2019-Jul-07 05:30N 43°33' E 010°18'0 0.0
2019-Jul-07 05:00N 43°33' E 010°18'0 0.0
2019-Jul-07 04:30N 43°33' E 010°18'0 0.0
2019-Jul-07 04:00N 43°33' E 010°18'0 0.0
2019-Jul-07 03:30N 43°33' E 010°18'0 0.0
2019-Jul-07 03:00N 43°33' E 010°18'0 0.0
2019-Jul-07 02:00N 43°33' E 010°18'0 0.0
2019-Jul-07 01:30N 43°33' E 010°18'0 0.0
2019-Jul-07 01:00N 43°33' E 010°18'0 0.0
2019-Jul-07 00:30N 43°33' E 010°18'0 0.0
2019-Jul-07 00:00N 43°33' E 010°18'0 0.0
2019-Jul-06 23:30N 43°33' E 010°18'0 0.0
2019-Jul-06 23:00N 43°33' E 010°18'  
Track history (hours):
 
Tides and Currents Weather Stations Pressure Air Temp Water Temp Dewpoint Dewpoint Depression Visibility Wind Speed Wind Dir Waves Ship Positions

Norse Mersey

Operator: Norse Merchant Ferries

Last reported at 2019-Jul-16 22:30 UTC. Time now 2019-Jul-16 22:35 UTC.
Position N 42°44' E 009°57'.

Length 175 m; draft 5.3 m.

Type: Passenger vessel. MMSI: 247026000.

Date/timePositionNaut miles runAvg speedWind from/ knotsBaromVisibWave heightAir tempDewpointWater temp
2019-Jul-16 22:30N 42°44' E 009°57'816.2
2019-Jul-16 22:00N 42°52' E 009°59'816.2
2019-Jul-16 21:30N 42°60' E 010°01'816.1
2019-Jul-16 21:00N 43°08' E 010°03'816.2
2019-Jul-16 20:30N 43°15' E 010°06'816.3
2019-Jul-16 20:00N 43°23' E 010°09'815.0
2019-Jul-16 19:30N 43°31' E 010°12'4 8.8
2019-Jul-16 19:00N 43°33' E 010°17'2 4.5
2019-Jul-16 18:28N 43°35' E 010°19'0 0.0
2019-Jul-16 17:58N 43°35' E 010°19'0 0.0
2019-Jul-16 17:28N 43°35' E 010°19'0 0.0
2019-Jul-16 16:58N 43°35' E 010°19'0 0.0
2019-Jul-16 16:28N 43°35' E 010°19'0 0.0
2019-Jul-16 15:58N 43°35' E 010°19'0 0.0
2019-Jul-16 15:28N 43°35' E 010°19'0 0.0
2019-Jul-16 14:58N 43°35' E 010°19'0 0.0
2019-Jul-16 14:28N 43°35' E 010°19'0 0.0
2019-Jul-16 13:58N 43°35' E 010°19'0 0.0
2019-Jul-16 13:28N 43°35' E 010°19'0 0.0
2019-Jul-16 12:58N 43°35' E 010°19'0 0.0
2019-Jul-16 12:25N 43°35' E 010°19'0 0.0
2019-Jul-16 11:58N 43°35' E 010°19'0 0.0
2019-Jul-16 11:28N 43°35' E 010°19'0 0.0
2019-Jul-16 10:58N 43°35' E 010°19'0 0.0
2019-Jul-16 10:28N 43°35' E 010°19'0 0.0
2019-Jul-16 09:58N 43°35' E 010°19'0 0.0
2019-Jul-16 09:28N 43°35' E 010°19'0 0.0
2019-Jul-16 08:58N 43°35' E 010°19'0 0.0
2019-Jul-16 08:25N 43°35' E 010°19'0 0.0
2019-Jul-16 07:58N 43°35' E 010°19'0 0.0
2019-Jul-16 07:28N 43°35' E 010°19'0 0.0
2019-Jul-16 06:55N 43°35' E 010°19'0 0.0
2019-Jul-16 06:28N 43°35' E 010°19'0 0.0
2019-Jul-16 05:55N 43°35' E 010°19'1 1.4
2019-Jul-16 05:31N 43°34' E 010°18'3 5.7
2019-Jul-16 05:00N 43°32' E 010°16'4 9.0
2019-Jul-16 04:30N 43°28' E 010°13'816.0
2019-Jul-16 04:00N 43°20' E 010°10'816.0
2019-Jul-16 03:30N 43°12' E 010°08'815.6
2019-Jul-16 03:00N 43°05' E 010°06'815.6
2019-Jul-16 02:29N 42°57' E 010°04'6515.3
2019-Jul-15 22:12N 41°53' E 009°46'56 2.0
2019-Jul-14 17:48N 40°58' E 009°36'  
2019-Jul-12 01:17N 41°48' E 009°48'716.6
2019-Jul-12 00:51N 41°55' E 009°49'3116.1
2019-Jul-11 22:57N 42°26' E 009°54'1316.0
2019-Jul-11 22:09N 42°38' E 009°55'616.1
2019-Jul-11 21:46N 42°44' E 009°57'616.1
2019-Jul-11 21:22N 42°51' E 009°59'815.8
2019-Jul-11 20:53N 42°58' E 010°01'615.8
2019-Jul-11 20:30N 43°04' E 010°03'815.7
2019-Jul-11 20:00N 43°12' E 010°05'815.8
2019-Jul-11 19:30N 43°19' E 010°08'815.9
2019-Jul-11 19:00N 43°27' E 010°11'612.8
2019-Jul-11 18:30N 43°32' E 010°16'3 5.3
2019-Jul-11 18:00N 43°34' E 010°18'1 1.3
2019-Jul-11 17:29N 43°35' E 010°19'0 0.0
2019-Jul-11 16:59N 43°35' E 010°19'0 0.0
2019-Jul-11 16:29N 43°35' E 010°19'0 0.0
2019-Jul-11 15:59N 43°35' E 010°19'0 0.0
2019-Jul-11 15:29N 43°35' E 010°19'0 0.0
2019-Jul-11 14:59N 43°35' E 010°19'0 0.0
2019-Jul-11 14:29N 43°35' E 010°19'0 0.0
2019-Jul-11 13:59N 43°35' E 010°19'0 0.0
2019-Jul-11 13:29N 43°35' E 010°19'0 0.0
2019-Jul-11 12:56N 43°35' E 010°19'0 0.0
2019-Jul-11 12:29N 43°35' E 010°19'0 0.0
2019-Jul-11 11:59N 43°35' E 010°19'0 0.0
2019-Jul-11 11:23N 43°35' E 010°19'0 0.0
2019-Jul-11 10:59N 43°35' E 010°19'0 0.0
2019-Jul-11 10:29N 43°35' E 010°19'0 0.0
2019-Jul-11 09:59N 43°35' E 010°19'0 0.0
2019-Jul-11 09:29N 43°35' E 010°19'0 0.0
2019-Jul-11 08:59N 43°35' E 010°19'0 0.0
2019-Jul-11 08:29N 43°35' E 010°19'0 0.0
2019-Jul-11 07:59N 43°35' E 010°19'0 0.0
2019-Jul-11 07:23N 43°35' E 010°19'0 0.0
2019-Jul-11 06:53N 43°35' E 010°19'0 0.0
2019-Jul-11 06:29N 43°35' E 010°19'0 0.0
2019-Jul-11 05:59N 43°35' E 010°19'1 1.1
2019-Jul-11 05:30N 43°34' E 010°19'3 6.7
2019-Jul-11 05:01N 43°32' E 010°16'2 3.8
2019-Jul-11 04:31N 43°30' E 010°15'3 5.3
2019-Jul-11 04:00N 43°28' E 010°13'815.9
2019-Jul-11 03:30N 43°20' E 010°10'815.8
2019-Jul-11 03:00N 43°12' E 010°07'815.8
2019-Jul-11 02:31N 43°05' E 010°05'815.9
2019-Jul-11 02:00N 42°57' E 010°03'1315.7
2019-Jul-11 01:10N 42°44' E 009°59'515.7
2019-Jul-11 00:52N 42°40' E 009°57'615.7
2019-Jul-11 00:29N 42°34' E 009°56'815.9
2019-Jul-10 23:58N 42°25' E 009°54'815.9
2019-Jul-10 23:27N 42°17' E 009°53'1115.7
2019-Jul-10 22:44N 42°06' E 009°52'515.5
2019-Jul-10 22:25N 42°01' E 009°52'15 0.7
2019-Jul-10 01:43N 41°47' E 009°48'315.5
2019-Jul-10 01:30N 41°50' E 009°48'6815.8
2019-Jul-09 21:13N 42°57' E 009°58'314.9
2019-Jul-09 21:00N 43°00' E 009°60'714.3
2019-Jul-09 20:30N 43°07' E 010°04'815.8
2019-Jul-09 20:00N 43°14' E 010°06'815.6
2019-Jul-09 19:30N 43°22' E 010°09'815.6
2019-Jul-09 19:00N 43°29' E 010°12'510.4
2019-Jul-09 18:31N 43°33' E 010°17'2 4.0
2019-Jul-09 18:00N 43°35' E 010°19'0 0.0
2019-Jul-09 17:30N 43°35' E 010°19'0 0.0
2019-Jul-09 17:00N 43°35' E 010°19'0 0.0
2019-Jul-09 16:21N 43°35' E 010°19'0 0.0
2019-Jul-09 15:54N 43°35' E 010°19'0 0.0
2019-Jul-09 15:30N 43°35' E 010°19'0 0.0
2019-Jul-09 15:00N 43°35' E 010°19'0 0.0
2019-Jul-09 14:30N 43°35' E 010°19'0 0.0
2019-Jul-09 14:00N 43°35' E 010°19'0 0.0
2019-Jul-09 13:30N 43°35' E 010°19'0 0.0
2019-Jul-09 13:00N 43°35' E 010°19'1 1.9
2019-Jul-09 12:30N 43°34' E 010°18'1 2.0
2019-Jul-09 11:57N 43°33' E 010°18'0 0.0
2019-Jul-09 11:30N 43°33' E 010°18'0 0.0
2019-Jul-09 11:00N 43°33' E 010°18'0 0.0
2019-Jul-09 10:30N 43°33' E 010°18'0 0.0
2019-Jul-09 10:00N 43°33' E 010°18'0 0.0
2019-Jul-09 09:30N 43°33' E 010°18'0 0.0
2019-Jul-09 09:00N 43°33' E 010°18'0 0.0
2019-Jul-09 08:30N 43°33' E 010°18'0 0.0
2019-Jul-09 07:57N 43°33' E 010°18'0 0.0
2019-Jul-09 07:30N 43°33' E 010°18'0 0.0
2019-Jul-09 07:00N 43°33' E 010°18'0 0.0
2019-Jul-09 06:27N 43°33' E 010°18'0 0.0
2019-Jul-09 06:00N 43°33' E 010°18'0 0.0
2019-Jul-09 05:30N 43°33' E 010°18'0 0.0
2019-Jul-09 05:00N 43°33' E 010°18'0 0.0
2019-Jul-09 04:30N 43°33' E 010°18'0 0.0
2019-Jul-09 03:57N 43°33' E 010°18'0 0.0
2019-Jul-09 03:27N 43°33' E 010°18'0 0.0
2019-Jul-09 03:00N 43°33' E 010°18'0 0.0
2019-Jul-09 02:30N 43°33' E 010°18'0 0.0
2019-Jul-09 02:00N 43°33' E 010°18'0 0.0
2019-Jul-09 01:30N 43°33' E 010°18'0 0.0
2019-Jul-09 01:00N 43°33' E 010°18'0 0.0
2019-Jul-09 00:30N 43°33' E 010°18'0 0.0
2019-Jul-08 23:57N 43°33' E 010°18'0 0.0
2019-Jul-08 23:30N 43°33' E 010°18'0 0.0
2019-Jul-08 23:00N 43°33' E 010°18'0 0.0
2019-Jul-08 22:30N 43°33' E 010°18'0 0.0
2019-Jul-08 22:00N 43°33' E 010°18'0 0.0
2019-Jul-08 21:30N 43°33' E 010°18'0 0.0
2019-Jul-08 20:57N 43°33' E 010°18'0 0.0
2019-Jul-08 20:30N 43°33' E 010°18'0 0.0
2019-Jul-08 19:57N 43°33' E 010°18'0 0.0
2019-Jul-08 19:30N 43°33' E 010°18'0 0.0
2019-Jul-08 19:00N 43°33' E 010°18'0 0.0
2019-Jul-08 18:30N 43°33' E 010°18'0 0.0
2019-Jul-08 18:00N 43°33' E 010°18'0 0.0
2019-Jul-08 17:30N 43°33' E 010°18'0 0.0
2019-Jul-08 17:00N 43°33' E 010°18'0 0.0
2019-Jul-08 16:30N 43°33' E 010°18'0 0.0
2019-Jul-08 16:00N 43°33' E 010°18'0 0.0
2019-Jul-08 15:27N 43°33' E 010°18'0 0.0
2019-Jul-08 15:00N 43°33' E 010°18'0 0.0
2019-Jul-08 14:30N 43°33' E 010°18'0 0.0
2019-Jul-08 14:00N 43°33' E 010°18'0 0.0
2019-Jul-08 13:30N 43°33' E 010°18'0 0.0
2019-Jul-08 13:00N 43°33' E 010°18'0 0.0
2019-Jul-08 12:27N 43°33' E 010°18'0 0.0
2019-Jul-08 12:00N 43°33' E 010°18'0 0.0
2019-Jul-08 11:27N 43°33' E 010°18'0 0.0
2019-Jul-08 11:00N 43°33' E 010°18'0 0.0
2019-Jul-08 10:30N 43°33' E 010°18'0 0.0
2019-Jul-08 10:00N 43°33' E 010°18'0 0.0
2019-Jul-08 09:30N 43°33' E 010°18'0 0.0
2019-Jul-08 09:00N 43°33' E 010°18'0 0.0
2019-Jul-08 08:30N 43°33' E 010°18'0 0.0
2019-Jul-08 08:00N 43°33' E 010°18'0 0.0
2019-Jul-08 07:30N 43°33' E 010°18'0 0.0
2019-Jul-08 07:00N 43°33' E 010°18'0 0.0
2019-Jul-08 06:30N 43°33' E 010°18'0 0.0
2019-Jul-08 06:00N 43°33' E 010°18'0 0.0
2019-Jul-08 05:27N 43°33' E 010°18'0 0.0
2019-Jul-08 05:00N 43°33' E 010°18'0 0.0
2019-Jul-08 04:27N 43°33' E 010°18'0 0.0
2019-Jul-08 03:57N 43°33' E 010°18'0 0.0
2019-Jul-08 03:30N 43°33' E 010°18'0 0.0
2019-Jul-08 03:00N 43°33' E 010°18'0 0.0
2019-Jul-08 02:24N 43°33' E 010°18'0 0.0
2019-Jul-08 02:00N 43°33' E 010°18'0 0.0
2019-Jul-08 01:30N 43°33' E 010°18'0 0.0
2019-Jul-08 01:00N 43°33' E 010°18'0 0.0
2019-Jul-08 00:30N 43°33' E 010°18'0 0.0
2019-Jul-08 00:00N 43°33' E 010°18'0 0.0
2019-Jul-07 23:27N 43°33' E 010°18'0 0.0
2019-Jul-07 23:00N 43°33' E 010°18'0 0.0
2019-Jul-07 22:30N 43°33' E 010°18'0 0.0
2019-Jul-07 21:57N 43°33' E 010°18'0 0.0
2019-Jul-07 21:30N 43°33' E 010°18'0 0.0
2019-Jul-07 21:00N 43°33' E 010°18'0 0.0
2019-Jul-07 20:27N 43°33' E 010°18'0 0.0
2019-Jul-07 20:00N 43°33' E 010°18'0 0.0
2019-Jul-07 19:30N 43°33' E 010°18'0 0.0
2019-Jul-07 19:00N 43°33' E 010°18'0 0.0
2019-Jul-07 18:30N 43°33' E 010°18'0 0.0
2019-Jul-07 18:00N 43°33' E 010°18'0 0.0
2019-Jul-07 17:27N 43°33' E 010°18'0 0.0
2019-Jul-07 16:57N 43°33' E 010°18'0 0.0
2019-Jul-07 16:30N 43°33' E 010°18'0 0.0
2019-Jul-07 16:00N 43°33' E 010°18'0 0.0
2019-Jul-07 15:30N 43°33' E 010°18'0 0.0
2019-Jul-07 15:00N 43°33' E 010°18'0 0.0
2019-Jul-07 14:30N 43°33' E 010°18'0 0.0
2019-Jul-07 14:00N 43°33' E 010°18'0 0.0
2019-Jul-07 13:30N 43°33' E 010°18'0 0.0
2019-Jul-07 13:00N 43°33' E 010°18'0 0.0
2019-Jul-07 12:30N 43°33' E 010°18'0 0.0
2019-Jul-07 12:00N 43°33' E 010°18'0 0.0
2019-Jul-07 11:30N 43°33' E 010°18'0 0.0
2019-Jul-07 10:54N 43°33' E 010°18'0 0.0
2019-Jul-07 10:30N 43°33' E 010°18'0 0.0
2019-Jul-07 10:00N 43°33' E 010°18'0 0.0
2019-Jul-07 09:27N 43°33' E 010°18'0 0.0
2019-Jul-07 09:00N 43°33' E 010°18'0 0.0
2019-Jul-07 08:30N 43°33' E 010°18'0 0.0
2019-Jul-07 08:00N 43°33' E 010°18'0 0.0
2019-Jul-07 07:27N 43°33' E 010°18'0 0.0
2019-Jul-07 07:00N 43°33' E 010°18'0 0.0
2019-Jul-07 06:30N 43°33' E 010°18'0 0.0
2019-Jul-07 06:00N 43°33' E 010°18'0 0.0
2019-Jul-07 05:30N 43°33' E 010°18'0 0.0
2019-Jul-07 05:00N 43°33' E 010°18'0 0.0
2019-Jul-07 04:30N 43°33' E 010°18'0 0.0
2019-Jul-07 04:00N 43°33' E 010°18'0 0.0
2019-Jul-07 03:30N 43°33' E 010°18'0 0.0
2019-Jul-07 03:00N 43°33' E 010°18'0 0.0
2019-Jul-07 02:00N 43°33' E 010°18'0 0.0
2019-Jul-07 01:30N 43°33' E 010°18'0 0.0
2019-Jul-07 01:00N 43°33' E 010°18'0 0.0
2019-Jul-07 00:30N 43°33' E 010°18'0 0.0
2019-Jul-07 00:00N 43°33' E 010°18'0 0.0
2019-Jul-06 23:30N 43°33' E 010°18'0 0.0
2019-Jul-06 23:00N 43°33' E 010°18'  

Dump ship's entire track history